Time;durP1;ratioP1;P1;durP2;ratioP2;P2;SDS_P1;SDS_P2;PMS_P1;PMS_P2;Temp;Humidity;BMP_temperature;BMP_pressure;BME280_temperature;BME280_humidity;BME280_pressure;Samples;Min_cycle;Max_cycle;Signal;HPM_P1;HPM_P2
2022/05/02 00:02:10;;;;;;;;;5.75;1.75;;;;;;;;5076314;28;9075;-51
2022/05/02 00:04:55;;;;;;;;;3.25;1.00;;;;;;;;5076381;28;8771;-48
2022/05/02 00:07:39;;;;;;;;;3.75;0.75;;;;;;;;5076550;28;8787;-49
2022/05/02 00:10:24;;;;;;;;;4.00;1.00;;;;;;;;5079375;28;8791;-49
2022/05/02 00:13:09;;;;;;;;;1.00;1.00;;;;;;;;5082823;28;9621;-53
2022/05/02 00:15:53;;;;;;;;;1.75;1.25;;;;;;;;5100527;28;8801;-48
2022/05/02 00:18:38;;;;;;;;;1.75;1.75;;;;;;;;5100695;28;8769;-53
2022/05/02 00:21:22;;;;;;;;;2.50;1.00;;;;;;;;5099997;28;8793;-50
2022/05/02 00:24:08;;;;;;;;;3.25;0.00;;;;;;;;5100315;28;8820;-51
2022/05/02 00:26:53;;;;;;;;;1.25;0.75;;;;;;;;5100213;28;8772;-51
2022/05/02 00:29:37;;;;;;;;;0.75;0.75;;;;;;;;5100195;28;8777;-54
2022/05/02 00:32:22;;;;;;;;;1.75;1.50;;;;;;;;5080466;28;9424;-50
2022/05/02 00:35:07;;;;;;;;;3.25;1.00;;;;;;;;5079745;28;9539;-49
2022/05/02 00:37:51;;;;;;;;;4.25;1.75;;;;;;;;5079602;28;8807;-55
2022/05/02 00:40:35;;;;;;;;;2.25;1.50;;;;;;;;5092751;28;8781;-50
2022/05/02 00:43:20;;;;;;;;;1.25;0.75;;;;;;;;5100074;28;8816;-51
2022/05/02 00:46:15;;;;;;;;;3.00;1.25;;;;;;;;5100088;28;8785;-53
2022/05/02 00:49:00;;;;;;;;;0.75;0.75;;;;;;;;5099873;28;8828;-49
2022/05/02 00:51:44;;;;;;;;;1.75;1.75;;;;;;;;5100124;28;8804;-52
2022/05/02 00:54:28;;;;;;;;;0.75;0.75;;;;;;;;5099607;28;8785;-54
2022/05/02 00:57:14;;;;;;;;;3.75;0.50;;;;;;;;5099644;28;8805;-48
2022/05/02 00:59:58;;;;;;;;;1.00;1.00;;;;;;;;5099665;28;8801;-50
2022/05/02 01:02:43;;;;;;;;;3.00;1.50;;;;;;;;5079283;28;8799;-55
2022/05/02 01:05:27;;;;;;;;;3.00;0.75;;;;;;;;5079130;28;8807;-51
2022/05/02 01:08:12;;;;;;;;;2.00;1.75;;;;;;;;5078964;28;8791;-58
2022/05/02 01:10:57;;;;;;;;;7.00;1.75;;;;;;;;5079368;28;8791;-51
2022/05/02 01:13:46;;;;;;;;;2.00;1.75;;;;;;;;5079342;28;8783;-51
2022/05/02 01:16:30;;;;;;;;;6.25;2.00;;;;;;;;5078968;28;8794;-54
2022/05/02 01:19:14;;;;;;;;;3.00;2.25;;;;;;;;5063380;28;9575;-56
2022/05/02 01:21:59;;;;;;;;;0.75;0.00;;;;;;;;5078994;28;8815;-52
2022/05/02 01:24:45;;;;;;;;;1.25;0.75;;;;;;;;5079003;28;8886;-52
2022/05/02 01:27:29;;;;;;;;;4.50;1.25;;;;;;;;5078620;28;8803;-50
2022/05/02 01:30:13;;;;;;;;;2.75;2.25;;;;;;;;5079006;28;8811;-51
2022/05/02 01:32:58;;;;;;;;;5.00;2.00;;;;;;;;5078623;28;8818;-52
2022/05/02 01:35:42;;;;;;;;;3.75;2.00;;;;;;;;5078908;28;8800;-49
2022/05/02 01:38:26;;;;;;;;;1.00;1.00;;;;;;;;5078377;28;8815;-51
2022/05/02 01:41:11;;;;;;;;;2.25;1.75;;;;;;;;5086378;28;8919;-51
2022/05/02 01:43:55;;;;;;;;;2.00;0.00;;;;;;;;5098930;28;8793;-48
2022/05/02 01:46:39;;;;;;;;;0.75;0.75;;;;;;;;5098781;28;8913;-55
2022/05/02 01:49:24;;;;;;;;;0.50;0.50;;;;;;;;5098573;28;8919;-48
2022/05/02 01:52:08;;;;;;;;;1.00;0.75;;;;;;;;5098692;28;8797;-50
2022/05/02 01:54:53;;;;;;;;;1.75;1.75;;;;;;;;5098696;28;8797;-50
2022/05/02 01:57:37;;;;;;;;;1.50;1.00;;;;;;;;5098389;28;9565;-52
2022/05/02 02:00:21;;;;;;;;;3.00;0.75;;;;;;;;5098543;28;8800;-51
2022/05/02 02:03:06;;;;;;;;;0.75;0.75;;;;;;;;5098493;28;8804;-54
2022/05/02 02:05:50;;;;;;;;;1.75;0.00;;;;;;;;5098572;28;9556;-52
2022/05/02 02:08:35;;;;;;;;;0.75;0.75;;;;;;;;5098196;28;8773;-50
2022/05/02 02:11:21;;;;;;;;;2.50;0.75;;;;;;;;5098285;28;8788;-53
2022/05/02 02:14:05;;;;;;;;;0.75;0.75;;;;;;;;5098183;28;8796;-51
2022/05/02 02:16:49;;;;;;;;;3.75;1.00;;;;;;;;5098124;28;9564;-50
2022/05/02 02:19:34;;;;;;;;;2.75;1.00;;;;;;;;5098080;28;8785;-53
2022/05/02 02:22:18;;;;;;;;;3.50;1.00;;;;;;;;5097876;28;8824;-53
2022/05/02 02:25:03;;;;;;;;;4.00;1.50;;;;;;;;5098133;28;9572;-52
2022/05/02 02:27:48;;;;;;;;;1.00;1.00;;;;;;;;5097833;28;8801;-48
2022/05/02 02:30:32;;;;;;;;;3.50;2.00;;;;;;;;5097878;28;8792;-50
2022/05/02 02:33:16;;;;;;;;;4.00;2.75;;;;;;;;5090703;28;8803;-54
2022/05/02 02:36:01;;;;;;;;;0.25;0.25;;;;;;;;5077733;28;9555;-53
2022/05/02 02:38:45;;;;;;;;;2.00;0.75;;;;;;;;5077431;28;8783;-48
2022/05/02 02:41:30;;;;;;;;;3.75;1.00;;;;;;;;5077366;28;8814;-51
2022/05/02 02:44:14;;;;;;;;;3.00;1.00;;;;;;;;5077626;28;8779;-51
2022/05/02 02:46:59;;;;;;;;;3.75;2.00;;;;;;;;5077333;28;8795;-50
2022/05/02 02:49:43;;;;;;;;;1.75;1.75;;;;;;;;5077101;28;8815;-52
2022/05/02 02:52:27;;;;;;;;;1.25;0.75;;;;;;;;5077751;28;8809;-51
2022/05/02 02:55:12;;;;;;;;;2.00;0.75;;;;;;;;5084206;28;9590;-51
2022/05/02 02:57:56;;;;;;;;;2.75;1.00;;;;;;;;5077037;28;8795;-51
2022/05/02 03:00:41;;;;;;;;;3.00;1.50;;;;;;;;5076950;28;8802;-50
2022/05/02 03:03:27;;;;;;;;;2.75;1.00;;;;;;;;5077269;28;8803;-51
2022/05/02 03:06:11;;;;;;;;;2.00;0.75;;;;;;;;5077035;28;8790;-49
2022/05/02 03:08:56;;;;;;;;;2.00;1.00;;;;;;;;5061367;28;8795;-53
2022/05/02 03:11:40;;;;;;;;;1.25;1.25;;;;;;;;5076850;28;8795;-51
2022/05/02 03:14:24;;;;;;;;;3.75;0.75;;;;;;;;5077033;28;8787;-48
2022/05/02 03:17:09;;;;;;;;;1.00;0.75;;;;;;;;5076990;28;8783;-51
2022/05/02 03:19:53;;;;;;;;;2.75;0.75;;;;;;;;5076630;28;8803;-51
2022/05/02 03:22:38;;;;;;;;;3.75;0.75;;;;;;;;5076742;28;8807;-50
2022/05/02 03:25:22;;;;;;;;;5.50;1.25;;;;;;;;5076888;28;8767;-52
2022/05/02 03:28:07;;;;;;;;;2.25;1.25;;;;;;;;5076703;28;9504;-51
2022/05/02 03:30:51;;;;;;;;;2.50;1.25;;;;;;;;5076604;28;8925;-52
2022/05/02 03:33:35;;;;;;;;;2.75;1.00;;;;;;;;5076845;28;8775;-50
2022/05/02 03:36:20;;;;;;;;;1.75;1.75;;;;;;;;5077085;28;8771;-53
2022/05/02 03:39:04;;;;;;;;;2.25;0.75;;;;;;;;5076462;28;8787;-54
2022/05/02 03:41:49;;;;;;;;;3.25;0.75;;;;;;;;5076695;28;9595;-55
2022/05/02 03:44:34;;;;;;;;;4.75;1.00;;;;;;;;5080120;28;8775;-55
2022/05/02 03:47:18;;;;;;;;;1.25;1.00;;;;;;;;5080941;28;8771;-51
2022/05/02 03:50:03;;;;;;;;;4.75;0.75;;;;;;;;5080562;28;8807;-53
2022/05/02 03:52:48;;;;;;;;;1.00;1.00;;;;;;;;5080775;28;8787;-50
2022/05/02 03:55:32;;;;;;;;;2.50;1.00;;;;;;;;5080531;28;8771;-52
2022/05/02 03:58:17;;;;;;;;;2.50;0.50;;;;;;;;5080782;28;8815;-51
2022/05/02 04:01:01;;;;;;;;;1.50;1.25;;;;;;;;5080251;28;8779;-51
2022/05/02 04:03:46;;;;;;;;;1.00;0.75;;;;;;;;5080312;28;8794;-50
2022/05/02 04:06:30;;;;;;;;;2.75;1.25;;;;;;;;5080568;28;8775;-49
2022/05/02 04:09:14;;;;;;;;;3.25;0.75;;;;;;;;5080264;28;8786;-53
2022/05/02 04:11:59;;;;;;;;;1.00;0.75;;;;;;;;5080131;28;8780;-51
2022/05/02 04:14:43;;;;;;;;;1.00;1.00;;;;;;;;5080413;28;8834;-51
2022/05/02 04:17:28;;;;;;;;;0.75;0.75;;;;;;;;5080231;28;8795;-51
2022/05/02 04:20:12;;;;;;;;;3.00;0.75;;;;;;;;5080149;28;8775;-49
2022/05/02 04:22:56;;;;;;;;;1.50;0.50;;;;;;;;5080000;28;8798;-48
2022/05/02 04:25:41;;;;;;;;;3.25;1.00;;;;;;;;5078654;28;8776;-53
2022/05/02 04:28:25;;;;;;;;;1.00;1.00;;;;;;;;5100463;28;8971;-50
2022/05/02 04:31:10;;;;;;;;;1.00;0.75;;;;;;;;5090409;28;8795;-52
2022/05/02 04:33:54;;;;;;;;;2.25;0.75;;;;;;;;5064682;28;8791;-55
2022/05/02 04:36:39;;;;;;;;;3.25;1.00;;;;;;;;5079888;28;8783;-51
2022/05/02 04:39:23;;;;;;;;;3.25;0.75;;;;;;;;5079842;28;8743;-48
2022/05/02 04:42:08;;;;;;;;;4.25;1.25;;;;;;;;5079352;28;8791;-48
2022/05/02 04:44:52;;;;;;;;;0.75;0.75;;;;;;;;5079819;28;8783;-53
2022/05/02 04:47:37;;;;;;;;;1.25;1.00;;;;;;;;5079729;28;8893;-51
2022/05/02 04:50:21;;;;;;;;;4.75;1.50;;;;;;;;5079364;28;8783;-50
2022/05/02 04:53:05;;;;;;;;;6.00;1.25;;;;;;;;5079629;28;8779;-52
2022/05/02 04:55:50;;;;;;;;;1.50;1.50;;;;;;;;5078482;28;8783;-50
2022/05/02 04:58:34;;;;;;;;;1.75;0.75;;;;;;;;5079107;28;8909;-49
2022/05/02 05:01:19;;;;;;;;;3.00;1.25;;;;;;;;5078929;28;8811;-50
2022/05/02 05:04:03;;;;;;;;;1.25;1.00;;;;;;;;5079418;28;9566;-51
2022/05/02 05:06:47;;;;;;;;;0.75;0.75;;;;;;;;5092785;28;8765;-52
2022/05/02 05:09:32;;;;;;;;;1.50;0.75;;;;;;;;5099406;28;8765;-50
2022/05/02 05:12:28;;;;;;;;;2.00;0.75;;;;;;;;5099217;28;8789;-53
2022/05/02 05:18:44;;;;;;;;;1.50;0.75;;;;;;;;5099491;28;8780;-53
2022/05/02 05:21:28;;;;;;;;;1.25;1.00;;;;;;;;5098923;28;8801;-51
2022/05/02 05:24:31;;;;;;;;;2.75;1.50;;;;;;;;5082910;28;8787;-54
2022/05/02 05:27:16;;;;;;;;;5.50;1.50;;;;;;;;5078817;28;8787;-50
2022/05/02 05:30:03;;;;;;;;;3.50;1.75;;;;;;;;5078669;28;8775;-52
2022/05/02 05:32:50;;;;;;;;;2.75;1.75;;;;;;;;5078860;28;8783;-51
2022/05/02 05:35:52;;;;;;;;;5.00;2.00;;;;;;;;5078489;28;8783;-49
2022/05/02 05:38:42;;;;;;;;;8.00;3.75;;;;;;;;5078548;28;8763;-52
2022/05/02 05:41:35;;;;;;;;;2.75;1.75;;;;;;;;5078473;28;8795;-50
2022/05/02 05:44:26;;;;;;;;;4.00;1.00;;;;;;;;5078450;28;10063;-55
2022/05/02 05:47:10;;;;;;;;;1.75;1.75;;;;;;;;5078478;28;8791;-48
2022/05/02 05:49:58;;;;;;;;;2.75;1.75;;;;;;;;5078425;28;8803;-55
2022/05/02 05:53:00;;;;;;;;;0.25;0.25;;;;;;;;5078090;28;8783;-52
2022/05/02 05:56:00;;;;;;;;;2.25;2.00;;;;;;;;5078306;28;8925;-50
2022/05/02 05:59:03;;;;;;;;;3.50;1.50;;;;;;;;5077956;28;8767;-51
2022/05/02 06:01:56;;;;;;;;;2.25;1.50;;;;;;;;5077971;28;8783;-51
2022/05/02 06:04:41;;;;;;;;;1.75;0.25;;;;;;;;5078062;28;8771;-53
2022/05/02 06:07:27;;;;;;;;;4.25;2.00;;;;;;;;5078201;28;9566;-53
2022/05/02 06:10:17;;;;;;;;;1.00;1.00;;;;;;;;5078199;28;9606;-50
2022/05/02 06:13:02;;;;;;;;;2.50;1.00;;;;;;;;5077991;28;8807;-53
2022/05/02 06:18:53;;;;;;;;;1.00;1.00;;;;;;;;5077425;28;8787;-51
2022/05/02 06:21:40;;;;;;;;;2.75;0.75;;;;;;;;5077251;28;8823;-51
2022/05/02 06:24:26;;;;;;;;;1.50;1.25;;;;;;;;5077655;28;8771;-51
2022/05/02 06:27:10;;;;;;;;;5.00;1.00;;;;;;;;5077725;28;8786;-53
2022/05/02 06:29:55;;;;;;;;;12.25;7.00;;;;;;;;5077209;28;8779;-50
2022/05/02 06:32:42;;;;;;;;;7.25;5.25;;;;;;;;5077074;28;8807;-54
2022/05/02 06:35:35;;;;;;;;;9.50;5.50;;;;;;;;5077614;28;8787;-48
2022/05/02 06:38:28;;;;;;;;;5.25;5.00;;;;;;;;5077451;28;8783;-53
2022/05/02 06:41:19;;;;;;;;;4.75;2.75;;;;;;;;5077349;28;8787;-52
2022/05/02 06:44:06;;;;;;;;;6.25;2.00;;;;;;;;5077387;28;8783;-54
2022/05/02 06:47:06;;;;;;;;;4.25;1.75;;;;;;;;5076842;28;8791;-54
2022/05/02 06:49:55;;;;;;;;;6.25;2.00;;;;;;;;5076681;28;8803;-54
2022/05/02 06:52:44;;;;;;;;;5.75;4.75;;;;;;;;5077016;28;8794;-53
2022/05/02 06:55:29;;;;;;;;;3.75;2.00;;;;;;;;5077380;28;9566;-52
2022/05/02 06:58:16;;;;;;;;;4.00;1.75;;;;;;;;5077123;28;8815;-53
2022/05/02 07:01:19;;;;;;;;;4.00;3.00;;;;;;;;5076842;28;8819;-54
2022/05/02 07:04:07;;;;;;;;;7.00;3.50;;;;;;;;5076797;28;8786;-50
2022/05/02 07:06:57;;;;;;;;;4.00;2.00;;;;;;;;5077954;28;8791;-54
2022/05/02 07:10:00;;;;;;;;;4.00;2.50;;;;;;;;5097254;28;8773;-54
2022/05/02 07:12:53;;;;;;;;;4.25;1.50;;;;;;;;5097272;28;8785;-56
2022/05/02 07:15:42;;;;;;;;;0.75;0.75;;;;;;;;5097420;28;8816;-54
2022/05/02 07:18:32;;;;;;;;;2.50;0.75;;;;;;;;5096908;28;8765;-56
2022/05/02 07:21:29;;;;;;;;;1.75;1.75;;;;;;;;5084409;28;8799;-52
2022/05/02 07:24:14;;;;;;;;;5.00;3.00;;;;;;;;5076743;28;8787;-52
2022/05/02 07:27:16;;;;;;;;;0.25;0.25;;;;;;;;5076460;28;8783;-52
2022/05/02 07:30:01;;;;;;;;;3.00;3.00;;;;;;;;5061001;28;9563;-53
2022/05/02 07:32:45;;;;;;;;;4.75;2.75;;;;;;;;5076657;28;8791;-53
2022/05/02 07:35:30;;;;;;;;;6.75;2.25;;;;;;;;5074706;28;8781;-53
2022/05/02 07:38:18;;;;;;;;;1.25;0.75;;;;;;;;5096783;28;8765;-54
2022/05/02 07:41:26;;;;;;;;;2.00;0.75;;;;;;;;5074414;28;8801;-55
2022/05/02 07:44:15;;;;;;;;;0.50;0.25;;;;;;;;5077795;28;8791;-53
2022/05/02 07:47:01;;;;;;;;;2.50;1.50;;;;;;;;5075337;28;8779;-56
2022/05/02 07:49:48;;;;;;;;;6.25;3.25;;;;;;;;5076263;28;9999;-53
2022/05/02 07:52:35;;;;;;;;;3.00;3.00;;;;;;;;5088425;28;8793;-50
2022/05/02 07:55:21;;;;;;;;;2.75;2.75;;;;;;;;5096283;28;8801;-51
2022/05/02 07:58:06;;;;;;;;;3.25;2.00;;;;;;;;5095817;28;8808;-57
2022/05/02 08:00:50;;;;;;;;;9.25;1.75;;;;;;;;5091982;28;8799;-55
2022/05/02 08:03:35;;;;;;;;;5.00;5.00;;;;;;;;5076263;28;8823;-55
2022/05/02 08:06:38;;;;;;;;;4.75;3.00;;;;;;;;5075607;28;8803;-50
2022/05/02 08:09:40;;;;;;;;;2.25;0.75;;;;;;;;5075491;28;8791;-52
2022/05/02 08:12:30;;;;;;;;;5.75;2.00;;;;;;;;5076207;28;8787;-56
2022/05/02 08:15:14;;;;;;;;;4.00;1.00;;;;;;;;5076167;28;8776;-55
2022/05/02 08:18:01;;;;;;;;;3.25;3.00;;;;;;;;5074920;28;8846;-55
2022/05/02 08:20:55;;;;;;;;;2.50;1.50;;;;;;;;5075690;28;8783;-50
2022/05/02 08:27:17;;;;;;;;;2.00;1.00;;;;;;;;5075292;28;8787;-55
2022/05/02 08:30:04;;;;;;;;;0.75;0.00;;;;;;;;5075742;28;8795;-52
2022/05/02 08:33:08;;;;;;;;;0.50;0.00;;;;;;;;5079595;28;8819;-53
2022/05/02 08:35:57;;;;;;;;;0.50;0.00;;;;;;;;5095558;28;8801;-53
2022/05/02 08:38:55;;;;;;;;;0.50;0.00;;;;;;;;5099306;28;8793;-51
2022/05/02 08:41:52;;;;;;;;;2.00;0.50;;;;;;;;5079595;28;8799;-55
2022/05/02 08:44:51;;;;;;;;;0.75;0.75;;;;;;;;5079698;28;8945;-53
2022/05/02 08:47:41;;;;;;;;;3.00;0.00;;;;;;;;5079142;28;9570;-51
2022/05/02 08:50:34;;;;;;;;;1.50;0.00;;;;;;;;5078408;28;9563;-54
2022/05/02 08:53:30;;;;;;;;;0.25;0.00;;;;;;;;5078963;28;8792;-51
2022/05/02 08:56:33;;;;;;;;;2.00;0.25;;;;;;;;5078587;28;8787;-53
2022/05/02 08:59:23;;;;;;;;;2.50;0.25;;;;;;;;5079083;28;8799;-56
2022/05/02 09:02:25;;;;;;;;;1.00;1.00;;;;;;;;5079311;28;8803;-55
2022/05/02 09:05:12;;;;;;;;;2.50;0.25;;;;;;;;5079005;28;8771;-51
2022/05/02 09:08:14;;;;;;;;;1.50;0.00;;;;;;;;5078774;28;8790;-54
2022/05/02 09:11:07;;;;;;;;;2.00;1.00;;;;;;;;5090217;28;8784;-53
2022/05/02 09:14:03;;;;;;;;;6.50;2.25;;;;;;;;5099006;28;8797;-50
2022/05/02 09:17:07;;;;;;;;;1.00;1.00;;;;;;;;5098479;28;8785;-52
2022/05/02 09:19:51;;;;;;;;;5.00;1.00;;;;;;;;5098806;28;8788;-52
2022/05/02 09:22:48;;;;;;;;;0.00;0.00;;;;;;;;5098938;28;8919;-51
2022/05/02 09:25:36;;;;;;;;;8.50;2.25;;;;;;;;5099071;28;8769;-51
2022/05/02 09:28:29;;;;;;;;;0.75;0.75;;;;;;;;5098923;28;8931;-50
2022/05/02 09:31:14;;;;;;;;;3.00;0.00;;;;;;;;5098476;28;8797;-55
2022/05/02 09:34:07;;;;;;;;;2.00;0.50;;;;;;;;5090160;28;8803;-54
2022/05/02 09:37:02;;;;;;;;;1.50;0.00;;;;;;;;5078001;28;8779;-52
2022/05/02 09:40:00;;;;;;;;;3.50;0.00;;;;;;;;5078323;28;8783;-54
2022/05/02 09:43:05;;;;;;;;;0.75;0.75;;;;;;;;5077937;28;8815;-49
2022/05/02 09:52:16;;;;;;;;;5.00;2.50;;;;;;;;5097857;28;8792;-54
2022/05/02 09:58:26;;;;;;;;;1.75;0.75;;;;;;;;5098357;28;8785;-52
2022/05/02 10:01:18;;;;;;;;;2.75;1.25;;;;;;;;5077559;28;8807;-54
2022/05/02 10:04:21;;;;;;;;;1.25;0.50;;;;;;;;5097208;28;8789;-52
2022/05/02 10:07:06;;;;;;;;;2.25;0.25;;;;;;;;5097765;28;8817;-51
2022/05/02 10:09:57;;;;;;;;;1.50;0.00;;;;;;;;5097577;28;8781;-53
2022/05/02 10:12:41;;;;;;;;;3.00;2.00;;;;;;;;5098130;28;8909;-52
2022/05/02 10:15:31;;;;;;;;;4.00;0.50;;;;;;;;5097585;28;8782;-53
2022/05/02 10:18:16;;;;;;;;;2.00;1.50;;;;;;;;5097805;28;8797;-53
2022/05/02 10:21:00;;;;;;;;;0.75;0.75;;;;;;;;5097400;28;8844;-53
2022/05/02 10:23:47;;;;;;;;;5.00;4.00;;;;;;;;5097342;28;8813;-55
2022/05/02 10:26:49;;;;;;;;;3.50;2.00;;;;;;;;5097951;28;8785;-53
2022/05/02 10:29:41;;;;;;;;;2.75;1.00;;;;;;;;5084325;28;9559;-51
2022/05/02 10:32:29;;;;;;;;;1.50;0.75;;;;;;;;5081967;28;9722;-55
2022/05/02 10:35:15;;;;;;;;;1.50;0.00;;;;;;;;5076723;28;8815;-55
2022/05/02 10:38:01;;;;;;;;;0.50;0.00;;;;;;;;5076986;28;8787;-53
2022/05/02 10:40:50;;;;;;;;;4.25;0.25;;;;;;;;5076947;28;8799;-52
2022/05/02 10:43:36;;;;;;;;;1.75;1.00;;;;;;;;5092323;28;8809;-53
2022/05/02 10:46:21;;;;;;;;;2.25;2.25;;;;;;;;5097466;28;9655;-56
2022/05/02 10:49:08;;;;;;;;;4.75;3.25;;;;;;;;5096940;28;8741;-55
2022/05/02 10:52:01;;;;;;;;;1.50;0.50;;;;;;;;5096750;28;8796;-52
2022/05/02 10:54:50;;;;;;;;;3.00;1.00;;;;;;;;5096550;28;8789;-49
2022/05/02 10:57:44;;;;;;;;;2.50;0.50;;;;;;;;5097432;28;8789;-49
2022/05/02 11:00:28;;;;;;;;;2.00;2.00;;;;;;;;5097324;28;8829;-53
2022/05/02 11:03:31;;;;;;;;;4.75;1.25;;;;;;;;5096358;28;8813;-49
2022/05/02 11:06:40;;;;;;;;;2.25;0.75;;;;;;;;5097118;28;8931;-51
2022/05/02 11:09:44;;;;;;;;;2.00;0.75;;;;;;;;5078486;28;8775;-53
2022/05/02 11:12:31;;;;;;;;;0.50;0.50;;;;;;;;5094458;28;8800;-53
2022/05/02 11:15:23;;;;;;;;;3.25;1.75;;;;;;;;5096525;28;8793;-53
2022/05/02 11:21:25;;;;;;;;;1.00;0.00;;;;;;;;5097014;28;8807;-52
2022/05/02 11:24:44;;;;;;;;;2.75;1.00;;;;;;;;5095741;28;8832;-53
2022/05/02 11:27:42;;;;;;;;;0.00;0.00;;;;;;;;5038407;28;8913;-51
2022/05/02 11:30:28;;;;;;;;;1.25;0.50;;;;;;;;5082776;28;8795;-54
2022/05/02 11:33:28;;;;;;;;;3.75;0.75;;;;;;;;5076309;28;9543;-53
2022/05/02 11:36:14;;;;;;;;;3.50;0.00;;;;;;;;5076412;28;8783;-54
2022/05/02 11:39:02;;;;;;;;;1.50;0.00;;;;;;;;5076614;28;8840;-54
2022/05/02 11:41:47;;;;;;;;;1.50;0.25;;;;;;;;5076520;28;8799;-53
2022/05/02 11:44:36;;;;;;;;;0.75;0.75;;;;;;;;5076910;28;8759;-55
2022/05/02 11:47:43;;;;;;;;;2.75;0.50;;;;;;;;5096586;28;8931;-54
2022/05/02 11:50:28;;;;;;;;;3.25;0.25;;;;;;;;5096744;28;8789;-53
2022/05/02 11:53:14;;;;;;;;;1.75;0.00;;;;;;;;5096817;28;8789;-53
2022/05/02 11:56:01;;;;;;;;;2.00;1.00;;;;;;;;5096658;28;9517;-53
2022/05/02 11:58:46;;;;;;;;;3.00;1.00;;;;;;;;5097006;28;9548;-54
2022/05/02 12:01:37;;;;;;;;;3.00;2.00;;;;;;;;5096641;28;8801;-54
2022/05/02 12:04:23;;;;;;;;;0.25;0.25;;;;;;;;5097780;28;8796;-54
2022/05/02 12:07:12;;;;;;;;;2.25;1.00;;;;;;;;5100592;28;8773;-49
2022/05/02 12:10:02;;;;;;;;;2.75;0.75;;;;;;;;5100506;28;8785;-55
2022/05/02 12:12:50;;;;;;;;;4.00;0.75;;;;;;;;5080436;28;8791;-51
2022/05/02 12:15:52;;;;;;;;;1.50;1.25;;;;;;;;5094484;28;8923;-53
2022/05/02 12:18:47;;;;;;;;;0.00;0.00;;;;;;;;5100562;28;8792;-53
2022/05/02 12:21:48;;;;;;;;;1.00;0.00;;;;;;;;5100467;28;9561;-55
2022/05/02 12:24:34;;;;;;;;;2.25;1.25;;;;;;;;5100443;28;8805;-54
2022/05/02 12:27:19;;;;;;;;;3.25;1.25;;;;;;;;5100241;28;8793;-53
2022/05/02 12:30:06;;;;;;;;;0.00;0.00;;;;;;;;5100296;28;8907;-54
2022/05/02 12:32:51;;;;;;;;;1.50;0.00;;;;;;;;5078529;28;8791;-50
2022/05/02 12:35:36;;;;;;;;;1.75;0.00;;;;;;;;5080000;28;8783;-51
2022/05/02 12:38:25;;;;;;;;;0.50;0.00;;;;;;;;5079440;28;8954;-49
2022/05/02 12:41:11;;;;;;;;;3.00;1.00;;;;;;;;5079381;28;8783;-53
2022/05/02 12:44:09;;;;;;;;;5.75;3.50;;;;;;;;5079770;28;9542;-52
2022/05/02 12:46:55;;;;;;;;;1.00;0.00;;;;;;;;5095231;28;8882;-52
2022/05/02 12:49:54;;;;;;;;;0.50;0.00;;;;;;;;5099976;28;8777;-53
2022/05/02 12:52:48;;;;;;;;;4.00;1.75;;;;;;;;5099856;28;8804;-51
2022/05/02 12:55:34;;;;;;;;;3.00;0.00;;;;;;;;5099820;28;8789;-53
2022/05/02 13:01:22;;;;;;;;;5.75;1.75;;;;;;;;5099522;28;8780;-53
2022/05/02 13:04:13;;;;;;;;;2.75;1.25;;;;;;;;5084323;28;10128;-53
2022/05/02 13:06:58;;;;;;;;;1.75;1.75;;;;;;;;5099699;28;8773;-55
2022/05/02 13:09:43;;;;;;;;;3.00;0.50;;;;;;;;5087489;28;8771;-51
2022/05/02 13:12:28;;;;;;;;;0.50;0.50;;;;;;;;5078525;28;8815;-51
2022/05/02 13:15:12;;;;;;;;;0.25;0.25;;;;;;;;5078749;28;8775;-52
2022/05/02 13:18:07;;;;;;;;;0.50;0.25;;;;;;;;5078899;28;8811;-53
2022/05/02 13:21:02;;;;;;;;;0.00;0.00;;;;;;;;5078989;28;8791;-54
2022/05/02 13:23:50;;;;;;;;;0.50;0.50;;;;;;;;5098828;28;8804;-49
2022/05/02 13:26:43;;;;;;;;;0.50;0.00;;;;;;;;5098882;28;8793;-53
2022/05/02 13:29:44;;;;;;;;;7.00;5.25;;;;;;;;5099099;28;8793;-52
2022/05/02 13:32:33;;;;;;;;;0.75;0.00;;;;;;;;5099022;28;9651;-54
2022/05/02 13:35:25;;;;;;;;;2.00;1.00;;;;;;;;5099065;28;8789;-52
2022/05/02 13:38:11;;;;;;;;;1.50;1.00;;;;;;;;5098831;28;8777;-51
2022/05/02 13:41:06;;;;;;;;;3.25;0.00;;;;;;;;5086734;28;8787;-53
2022/05/02 13:44:07;;;;;;;;;2.75;1.00;;;;;;;;5083949;28;8807;-54
2022/05/02 13:46:56;;;;;;;;;2.75;0.00;;;;;;;;5097134;28;8917;-53
2022/05/02 13:50:01;;;;;;;;;1.00;0.00;;;;;;;;5097863;28;8793;-52
2022/05/02 13:52:48;;;;;;;;;5.00;3.50;;;;;;;;5097024;28;8801;-50
2022/05/02 13:55:45;;;;;;;;;1.50;0.50;;;;;;;;5098479;28;8934;-55
2022/05/02 13:58:33;;;;;;;;;5.25;3.00;;;;;;;;5077914;28;8811;-53
2022/05/02 14:01:39;;;;;;;;;5.25;4.25;;;;;;;;5078045;28;8783;-53
2022/05/02 14:07:14;;;;;;;;;9.75;7.75;;;;;;;;5077389;28;8783;-53
2022/05/02 14:10:00;;;;;;;;;3.25;2.50;;;;;;;;5077579;28;8823;-50
2022/05/02 14:12:44;;;;;;;;;7.25;5.25;;;;;;;;5077147;28;8827;-53
2022/05/02 14:15:32;;;;;;;;;1.25;1.25;;;;;;;;5077248;28;8787;-53
2022/05/02 14:18:18;;;;;;;;;7.75;6.50;;;;;;;;5077541;28;8771;-52
2022/05/02 14:21:06;;;;;;;;;2.75;2.75;;;;;;;;5077271;28;8779;-56
2022/05/02 14:23:55;;;;;;;;;3.00;1.00;;;;;;;;5076614;28;8799;-53
2022/05/02 14:26:40;;;;;;;;;2.00;0.50;;;;;;;;5078114;28;8780;-53
2022/05/02 14:29:30;;;;;;;;;0.25;0.25;;;;;;;;5076627;28;8783;-51
2022/05/02 14:32:14;;;;;;;;;3.00;3.00;;;;;;;;5076762;28;8795;-52
2022/05/02 14:34:59;;;;;;;;;7.00;5.25;;;;;;;;5076661;28;8775;-52
2022/05/02 14:37:43;;;;;;;;;1.25;1.00;;;;;;;;5077371;28;8778;-49
2022/05/02 14:40:28;;;;;;;;;1.75;0.75;;;;;;;;5077143;28;8775;-54
2022/05/02 14:43:17;;;;;;;;;6.75;1.50;;;;;;;;5092538;28;8817;-52
2022/05/02 14:46:03;;;;;;;;;3.50;3.25;;;;;;;;5096817;28;8777;-51
2022/05/02 14:48:48;;;;;;;;;2.75;1.50;;;;;;;;5097058;28;8797;-51
2022/05/02 14:51:38;;;;;;;;;1.00;1.00;;;;;;;;5096250;28;8781;-51
2022/05/02 14:54:24;;;;;;;;;5.25;4.00;;;;;;;;5097318;28;8773;-54
2022/05/02 14:57:12;;;;;;;;;2.00;2.00;;;;;;;;5096732;28;8801;-53
2022/05/02 15:00:01;;;;;;;;;11.75;9.50;;;;;;;;5081580;28;8754;-51
2022/05/02 15:02:47;;;;;;;;;16.00;10.75;;;;;;;;5096215;28;8929;-53
2022/05/02 15:05:35;;;;;;;;;18.25;12.50;;;;;;;;5097274;28;8773;-52
2022/05/02 15:08:28;;;;;;;;;14.75;13.00;;;;;;;;5097074;28;8793;-52
2022/05/02 15:11:27;;;;;;;;;15.75;14.75;;;;;;;;5081866;28;8777;-51
2022/05/02 15:14:24;;;;;;;;;11.25;10.25;;;;;;;;5097149;28;8781;-53
2022/05/02 15:17:24;;;;;;;;;15.25;14.50;;;;;;;;5096251;28;8788;-54
2022/05/02 15:20:14;;;;;;;;;11.75;7.00;;;;;;;;5097077;28;8781;-53
2022/05/02 15:23:01;;;;;;;;;4.25;3.75;;;;;;;;5095965;28;8809;-53
2022/05/02 15:25:53;;;;;;;;;5.25;3.25;;;;;;;;5095775;28;8768;-53
2022/05/02 15:38:58;;;;;;;;;1.25;1.25;;;;;;;;5076170;28;8771;-53
2022/05/02 15:41:43;;;;;;;;;6.25;4.00;;;;;;;;5078140;28;8814;-53
2022/05/02 15:44:28;;;;;;;;;9.25;5.75;;;;;;;;5081028;28;8787;-51
2022/05/02 15:47:17;;;;;;;;;3.00;2.75;;;;;;;;5100201;28;8761;-51
2022/05/02 15:50:04;;;;;;;;;6.50;1.75;;;;;;;;5093056;28;8789;-53
2022/05/02 15:52:58;;;;;;;;;4.75;2.25;;;;;;;;5084160;28;8795;-50
2022/05/02 15:55:48;;;;;;;;;4.00;1.00;;;;;;;;5079816;28;8842;-52
2022/05/02 15:58:52;;;;;;;;;4.00;2.50;;;;;;;;5100661;28;8780;-53
2022/05/02 16:01:54;;;;;;;;;1.25;0.50;;;;;;;;5100693;28;8781;-53
2022/05/02 16:04:50;;;;;;;;;4.25;0.50;;;;;;;;5100419;28;8797;-55
2022/05/02 16:10:56;;;;;;;;;1.50;1.00;;;;;;;;5100070;28;8769;-53
2022/05/02 16:13:41;;;;;;;;;3.50;0.75;;;;;;;;5100165;28;8801;-53
2022/05/02 16:16:25;;;;;;;;;8.25;0.00;;;;;;;;5099856;28;8789;-54
2022/05/02 16:19:10;;;;;;;;;2.00;0.75;;;;;;;;5089022;28;9678;-51
2022/05/02 16:21:56;;;;;;;;;2.25;0.00;;;;;;;;5079329;28;8796;-52
2022/05/02 16:24:47;;;;;;;;;0.25;0.25;;;;;;;;5100169;28;8777;-52
2022/05/02 16:27:32;;;;;;;;;2.75;1.25;;;;;;;;5084178;28;8783;-55
2022/05/02 16:30:18;;;;;;;;;3.75;2.50;;;;;;;;5097523;28;8800;-48
2022/05/02 16:33:03;;;;;;;;;6.00;3.50;;;;;;;;5099918;28;8915;-50
2022/05/02 16:35:51;;;;;;;;;4.00;2.25;;;;;;;;5100051;28;8781;-52
2022/05/02 16:38:39;;;;;;;;;4.00;1.25;;;;;;;;5098800;28;8796;-55
2022/05/02 16:41:26;;;;;;;;;2.00;2.00;;;;;;;;5079596;28;8787;-54
2022/05/02 16:44:11;;;;;;;;;5.75;3.00;;;;;;;;5079507;28;8783;-51
2022/05/02 16:47:01;;;;;;;;;1.00;0.00;;;;;;;;5079394;28;8779;-53
2022/05/02 16:49:45;;;;;;;;;3.00;1.25;;;;;;;;5078704;28;8779;-52
2022/05/02 16:52:33;;;;;;;;;1.50;1.25;;;;;;;;5078436;28;9578;-52
2022/05/02 16:55:19;;;;;;;;;1.00;1.00;;;;;;;;5078856;28;8830;-53
2022/05/02 16:58:13;;;;;;;;;2.00;0.25;;;;;;;;5092691;28;8796;-49
2022/05/02 17:00:59;;;;;;;;;2.00;1.00;;;;;;;;5079654;28;8807;-52
2022/05/02 17:04:09;;;;;;;;;3.00;0.75;;;;;;;;5079224;28;8795;-52
2022/05/02 17:07:00;;;;;;;;;0.00;0.00;;;;;;;;5078704;28;8814;-54
2022/05/02 17:09:44;;;;;;;;;1.00;0.25;;;;;;;;5098135;28;8773;-52
2022/05/02 17:12:29;;;;;;;;;2.00;0.25;;;;;;;;5098480;28;8789;-49
2022/05/02 17:15:13;;;;;;;;;6.75;1.25;;;;;;;;5097820;28;8769;-53
2022/05/02 17:17:58;;;;;;;;;4.50;1.25;;;;;;;;5098255;28;8792;-54
2022/05/02 17:20:46;;;;;;;;;6.75;1.75;;;;;;;;5098485;28;8912;-55
2022/05/02 17:23:36;;;;;;;;;1.75;0.00;;;;;;;;5099052;28;9571;-54
2022/05/02 17:26:21;;;;;;;;;2.00;1.00;;;;;;;;5099218;28;8891;-53
2022/05/02 17:29:06;;;;;;;;;3.75;1.50;;;;;;;;5099384;28;8777;-50
2022/05/02 17:31:53;;;;;;;;;1.50;1.50;;;;;;;;5095331;28;8777;-55
2022/05/02 17:34:47;;;;;;;;;3.50;2.25;;;;;;;;5080978;28;8870;-51
2022/05/02 17:37:32;;;;;;;;;3.00;2.00;;;;;;;;5064421;28;8935;-50
2022/05/02 17:40:17;;;;;;;;;1.50;1.50;;;;;;;;5084839;28;8771;-57
2022/05/02 17:43:12;;;;;;;;;0.25;0.25;;;;;;;;5078729;28;8787;-52
2022/05/02 17:46:00;;;;;;;;;0.75;0.75;;;;;;;;5078851;28;8795;-53
2022/05/02 17:48:45;;;;;;;;;3.50;0.50;;;;;;;;5078319;28;8779;-53